sensor_id;sensor_type;location;lat;lon;timestamp;P1;durP1;ratioP1;P2;durP2;ratioP2
7575;SDS011;3829;50.798;4.358;2022-07-29T00:00:35;6.50;;;1.80;;
7575;SDS011;3829;50.798;4.358;2022-07-29T00:03:01;3.40;;;1.73;;
7575;SDS011;3829;50.798;4.358;2022-07-29T00:05:27;7.17;;;2.20;;
7575;SDS011;3829;50.798;4.358;2022-07-29T00:07:53;7.93;;;2.20;;
7575;SDS011;3829;50.798;4.358;2022-07-29T00:10:18;3.03;;;1.73;;
7575;SDS011;3829;50.798;4.358;2022-07-29T00:12:44;4.23;;;1.70;;
7575;SDS011;3829;50.798;4.358;2022-07-29T00:15:09;5.23;;;2.00;;
7575;SDS011;3829;50.798;4.358;2022-07-29T00:17:35;3.67;;;1.80;;
7575;SDS011;3829;50.798;4.358;2022-07-29T00:20:01;7.50;;;1.67;;
7575;SDS011;3829;50.798;4.358;2022-07-29T00:22:26;4.80;;;1.93;;
7575;SDS011;3829;50.798;4.358;2022-07-29T00:24:52;3.13;;;1.50;;
7575;SDS011;3829;50.798;4.358;2022-07-29T00:27:18;6.13;;;2.43;;
7575;SDS011;3829;50.798;4.358;2022-07-29T00:29:43;3.27;;;1.70;;
7575;SDS011;3829;50.798;4.358;2022-07-29T00:32:09;4.07;;;1.70;;
7575;SDS011;3829;50.798;4.358;2022-07-29T00:34:35;4.93;;;1.70;;
7575;SDS011;3829;50.798;4.358;2022-07-29T00:37:19;4.60;;;1.73;;
7575;SDS011;3829;50.798;4.358;2022-07-29T00:39:44;2.57;;;1.40;;
7575;SDS011;3829;50.798;4.358;2022-07-29T00:42:10;5.27;;;1.87;;
7575;SDS011;3829;50.798;4.358;2022-07-29T00:44:39;4.43;;;2.03;;
7575;SDS011;3829;50.798;4.358;2022-07-29T00:47:06;5.87;;;1.80;;
7575;SDS011;3829;50.798;4.358;2022-07-29T00:49:33;4.40;;;1.73;;
7575;SDS011;3829;50.798;4.358;2022-07-29T00:52:00;2.93;;;2.03;;
7575;SDS011;3829;50.798;4.358;2022-07-29T00:54:27;3.90;;;1.50;;
7575;SDS011;3829;50.798;4.358;2022-07-29T00:56:54;4.80;;;1.60;;
7575;SDS011;3829;50.798;4.358;2022-07-29T00:59:22;6.30;;;1.97;;
7575;SDS011;3829;50.798;4.358;2022-07-29T01:01:48;5.03;;;1.90;;
7575;SDS011;3829;50.798;4.358;2022-07-29T01:04:14;10.17;;;1.90;;
7575;SDS011;3829;50.798;4.358;2022-07-29T01:06:39;4.23;;;1.73;;
7575;SDS011;3829;50.798;4.358;2022-07-29T01:09:05;4.93;;;1.60;;
7575;SDS011;3829;50.798;4.358;2022-07-29T01:11:31;3.57;;;1.77;;
7575;SDS011;3829;50.798;4.358;2022-07-29T01:13:59;7.47;;;2.00;;
7575;SDS011;3829;50.798;4.358;2022-07-29T01:16:32;4.27;;;2.10;;
7575;SDS011;3829;50.798;4.358;2022-07-29T01:19:13;3.30;;;1.63;;
7575;SDS011;3829;50.798;4.358;2022-07-29T01:21:57;6.93;;;1.90;;
7575;SDS011;3829;50.798;4.358;2022-07-29T01:24:30;8.27;;;2.00;;
7575;SDS011;3829;50.798;4.358;2022-07-29T01:30:03;6.23;;;1.90;;
7575;SDS011;3829;50.798;4.358;2022-07-29T01:32:31;7.60;;;2.10;;
7575;SDS011;3829;50.798;4.358;2022-07-29T01:35:17;4.07;;;1.80;;
7575;SDS011;3829;50.798;4.358;2022-07-29T01:37:56;7.53;;;1.97;;
7575;SDS011;3829;50.798;4.358;2022-07-29T01:43:18;6.47;;;2.00;;
7575;SDS011;3829;50.798;4.358;2022-07-29T01:45:59;6.50;;;1.70;;
7575;SDS011;3829;50.798;4.358;2022-07-29T01:48:29;5.80;;;1.90;;
7575;SDS011;3829;50.798;4.358;2022-07-29T01:51:02;8.03;;;1.90;;
7575;SDS011;3829;50.798;4.358;2022-07-29T01:53:36;2.87;;;1.83;;
7575;SDS011;3829;50.798;4.358;2022-07-29T01:56:07;5.13;;;2.00;;
7575;SDS011;3829;50.798;4.358;2022-07-29T01:58:35;3.80;;;1.93;;
7575;SDS011;3829;50.798;4.358;2022-07-29T02:01:05;4.23;;;1.90;;
7575;SDS011;3829;50.798;4.358;2022-07-29T02:03:33;7.63;;;1.60;;
7575;SDS011;3829;50.798;4.358;2022-07-29T02:06:01;3.10;;;1.50;;
7575;SDS011;3829;50.798;4.358;2022-07-29T02:08:29;6.07;;;1.90;;
7575;SDS011;3829;50.798;4.358;2022-07-29T02:10:57;4.17;;;1.90;;
7575;SDS011;3829;50.798;4.358;2022-07-29T02:13:24;7.00;;;1.90;;
7575;SDS011;3829;50.798;4.358;2022-07-29T02:15:52;5.20;;;1.80;;
7575;SDS011;3829;50.798;4.358;2022-07-29T02:18:19;4.70;;;1.63;;
7575;SDS011;3829;50.798;4.358;2022-07-29T02:20:48;6.17;;;2.20;;
7575;SDS011;3829;50.798;4.358;2022-07-29T02:23:17;2.50;;;1.60;;
7575;SDS011;3829;50.798;4.358;2022-07-29T02:25:53;6.90;;;1.90;;
7575;SDS011;3829;50.798;4.358;2022-07-29T02:28:21;5.67;;;1.90;;
7575;SDS011;3829;50.798;4.358;2022-07-29T02:30:50;4.70;;;1.93;;
7575;SDS011;3829;50.798;4.358;2022-07-29T02:33:18;5.03;;;1.80;;
7575;SDS011;3829;50.798;4.358;2022-07-29T02:35:46;5.23;;;2.10;;
7575;SDS011;3829;50.798;4.358;2022-07-29T02:38:13;5.30;;;2.13;;
7575;SDS011;3829;50.798;4.358;2022-07-29T02:41:05;2.70;;;1.67;;
7575;SDS011;3829;50.798;4.358;2022-07-29T02:43:39;5.03;;;2.30;;
7575;SDS011;3829;50.798;4.358;2022-07-29T02:46:08;3.90;;;1.90;;
7575;SDS011;3829;50.798;4.358;2022-07-29T02:48:38;3.40;;;2.00;;
7575;SDS011;3829;50.798;4.358;2022-07-29T02:51:12;4.77;;;1.87;;
7575;SDS011;3829;50.798;4.358;2022-07-29T02:53:44;6.57;;;1.90;;
7575;SDS011;3829;50.798;4.358;2022-07-29T02:56:14;5.80;;;2.27;;
7575;SDS011;3829;50.798;4.358;2022-07-29T02:58:49;3.30;;;1.73;;
7575;SDS011;3829;50.798;4.358;2022-07-29T03:01:24;6.07;;;1.87;;
7575;SDS011;3829;50.798;4.358;2022-07-29T03:03:53;3.17;;;1.77;;
7575;SDS011;3829;50.798;4.358;2022-07-29T03:06:20;3.90;;;1.87;;
7575;SDS011;3829;50.798;4.358;2022-07-29T03:08:48;7.33;;;2.50;;
7575;SDS011;3829;50.798;4.358;2022-07-29T03:11:15;3.37;;;1.70;;
7575;SDS011;3829;50.798;4.358;2022-07-29T03:13:42;8.03;;;2.20;;
7575;SDS011;3829;50.798;4.358;2022-07-29T03:16:09;5.50;;;2.10;;
7575;SDS011;3829;50.798;4.358;2022-07-29T03:18:35;4.20;;;1.87;;
7575;SDS011;3829;50.798;4.358;2022-07-29T03:21:02;4.43;;;2.30;;
7575;SDS011;3829;50.798;4.358;2022-07-29T03:23:30;6.90;;;2.20;;
7575;SDS011;3829;50.798;4.358;2022-07-29T03:25:56;7.00;;;3.17;;
7575;SDS011;3829;50.798;4.358;2022-07-29T03:28:21;3.77;;;2.07;;
7575;SDS011;3829;50.798;4.358;2022-07-29T03:30:48;6.80;;;2.10;;
7575;SDS011;3829;50.798;4.358;2022-07-29T03:33:14;2.93;;;1.93;;
7575;SDS011;3829;50.798;4.358;2022-07-29T03:35:40;3.10;;;2.10;;
7575;SDS011;3829;50.798;4.358;2022-07-29T03:38:06;6.47;;;2.23;;
7575;SDS011;3829;50.798;4.358;2022-07-29T03:40:40;6.80;;;2.20;;
7575;SDS011;3829;50.798;4.358;2022-07-29T03:43:09;3.93;;;2.00;;
7575;SDS011;3829;50.798;4.358;2022-07-29T03:45:36;3.47;;;1.83;;
7575;SDS011;3829;50.798;4.358;2022-07-29T03:48:05;2.83;;;1.80;;
7575;SDS011;3829;50.798;4.358;2022-07-29T03:50:34;5.20;;;2.27;;
7575;SDS011;3829;50.798;4.358;2022-07-29T03:53:00;6.67;;;2.67;;
7575;SDS011;3829;50.798;4.358;2022-07-29T03:55:28;6.37;;;2.17;;
7575;SDS011;3829;50.798;4.358;2022-07-29T03:57:57;4.43;;;1.80;;
7575;SDS011;3829;50.798;4.358;2022-07-29T04:00:25;7.77;;;1.90;;
7575;SDS011;3829;50.798;4.358;2022-07-29T04:02:51;4.57;;;2.20;;
7575;SDS011;3829;50.798;4.358;2022-07-29T04:05:17;3.67;;;2.20;;
7575;SDS011;3829;50.798;4.358;2022-07-29T04:07:44;4.93;;;2.60;;
7575;SDS011;3829;50.798;4.358;2022-07-29T04:10:10;3.97;;;1.87;;
7575;SDS011;3829;50.798;4.358;2022-07-29T04:12:36;2.93;;;2.10;;
7575;SDS011;3829;50.798;4.358;2022-07-29T04:15:05;7.60;;;2.03;;
7575;SDS011;3829;50.798;4.358;2022-07-29T04:17:31;5.33;;;2.23;;
7575;SDS011;3829;50.798;4.358;2022-07-29T04:19:56;11.50;;;2.43;;
7575;SDS011;3829;50.798;4.358;2022-07-29T04:22:22;4.53;;;2.10;;
7575;SDS011;3829;50.798;4.358;2022-07-29T04:24:47;5.43;;;2.50;;
7575;SDS011;3829;50.798;4.358;2022-07-29T04:27:13;7.83;;;2.23;;
7575;SDS011;3829;50.798;4.358;2022-07-29T04:29:39;5.63;;;2.60;;
7575;SDS011;3829;50.798;4.358;2022-07-29T04:32:04;4.60;;;2.03;;
7575;SDS011;3829;50.798;4.358;2022-07-29T04:34:30;8.43;;;2.47;;
7575;SDS011;3829;50.798;4.358;2022-07-29T04:36:56;6.47;;;2.37;;
7575;SDS011;3829;50.798;4.358;2022-07-29T04:39:21;4.57;;;2.43;;
7575;SDS011;3829;50.798;4.358;2022-07-29T04:41:47;6.13;;;2.20;;
7575;SDS011;3829;50.798;4.358;2022-07-29T04:44:13;7.67;;;2.90;;
7575;SDS011;3829;50.798;4.358;2022-07-29T04:46:38;8.03;;;2.50;;
7575;SDS011;3829;50.798;4.358;2022-07-29T04:49:04;4.53;;;2.10;;
7575;SDS011;3829;50.798;4.358;2022-07-29T04:51:30;4.07;;;2.10;;
7575;SDS011;3829;50.798;4.358;2022-07-29T04:53:56;5.67;;;2.50;;
7575;SDS011;3829;50.798;4.358;2022-07-29T04:56:21;6.53;;;2.40;;
7575;SDS011;3829;50.798;4.358;2022-07-29T04:58:47;3.87;;;2.00;;
7575;SDS011;3829;50.798;4.358;2022-07-29T05:01:13;4.17;;;2.70;;
7575;SDS011;3829;50.798;4.358;2022-07-29T05:03:39;5.87;;;2.70;;
7575;SDS011;3829;50.798;4.358;2022-07-29T05:06:06;5.70;;;2.40;;
7575;SDS011;3829;50.798;4.358;2022-07-29T05:08:31;6.27;;;2.70;;
7575;SDS011;3829;50.798;4.358;2022-07-29T05:10:57;7.93;;;2.80;;
7575;SDS011;3829;50.798;4.358;2022-07-29T05:13:23;5.50;;;2.80;;
7575;SDS011;3829;50.798;4.358;2022-07-29T05:15:48;7.10;;;3.10;;
7575;SDS011;3829;50.798;4.358;2022-07-29T05:18:14;10.20;;;3.67;;
7575;SDS011;3829;50.798;4.358;2022-07-29T05:20:40;4.37;;;3.43;;
7575;SDS011;3829;50.798;4.358;2022-07-29T05:23:06;7.80;;;2.67;;
7575;SDS011;3829;50.798;4.358;2022-07-29T05:25:32;6.90;;;2.83;;
7575;SDS011;3829;50.798;4.358;2022-07-29T05:27:58;6.37;;;2.70;;
7575;SDS011;3829;50.798;4.358;2022-07-29T05:30:23;5.87;;;3.23;;
7575;SDS011;3829;50.798;4.358;2022-07-29T05:32:49;9.00;;;3.00;;
7575;SDS011;3829;50.798;4.358;2022-07-29T05:35:15;3.93;;;2.97;;
7575;SDS011;3829;50.798;4.358;2022-07-29T05:37:41;11.10;;;3.00;;
7575;SDS011;3829;50.798;4.358;2022-07-29T05:40:07;10.17;;;3.37;;
7575;SDS011;3829;50.798;4.358;2022-07-29T05:42:33;8.40;;;3.20;;
7575;SDS011;3829;50.798;4.358;2022-07-29T05:44:59;6.00;;;3.40;;
7575;SDS011;3829;50.798;4.358;2022-07-29T05:47:25;8.57;;;2.93;;
7575;SDS011;3829;50.798;4.358;2022-07-29T05:49:50;5.40;;;3.30;;
7575;SDS011;3829;50.798;4.358;2022-07-29T05:52:16;8.63;;;3.13;;
7575;SDS011;3829;50.798;4.358;2022-07-29T05:54:42;7.97;;;3.13;;
7575;SDS011;3829;50.798;4.358;2022-07-29T05:57:08;4.53;;;3.00;;
7575;SDS011;3829;50.798;4.358;2022-07-29T05:59:39;5.47;;;3.20;;
7575;SDS011;3829;50.798;4.358;2022-07-29T06:02:05;3.60;;;3.07;;
7575;SDS011;3829;50.798;4.358;2022-07-29T06:04:31;3.30;;;3.00;;
7575;SDS011;3829;50.798;4.358;2022-07-29T06:06:57;8.97;;;4.60;;
7575;SDS011;3829;50.798;4.358;2022-07-29T06:09:23;6.13;;;3.10;;
7575;SDS011;3829;50.798;4.358;2022-07-29T06:11:49;5.60;;;3.27;;
7575;SDS011;3829;50.798;4.358;2022-07-29T06:14:14;8.10;;;3.80;;
7575;SDS011;3829;50.798;4.358;2022-07-29T06:16:40;4.47;;;3.80;;
7575;SDS011;3829;50.798;4.358;2022-07-29T06:19:06;9.50;;;3.90;;
7575;SDS011;3829;50.798;4.358;2022-07-29T06:21:31;7.50;;;3.50;;
7575;SDS011;3829;50.798;4.358;2022-07-29T06:23:58;7.03;;;3.80;;
7575;SDS011;3829;50.798;4.358;2022-07-29T06:26:24;4.97;;;3.30;;
7575;SDS011;3829;50.798;4.358;2022-07-29T06:28:49;6.87;;;3.77;;
7575;SDS011;3829;50.798;4.358;2022-07-29T06:31:15;5.43;;;3.47;;
7575;SDS011;3829;50.798;4.358;2022-07-29T06:33:41;8.10;;;3.63;;
7575;SDS011;3829;50.798;4.358;2022-07-29T06:36:06;6.60;;;3.90;;
7575;SDS011;3829;50.798;4.358;2022-07-29T06:38:32;4.77;;;3.90;;
7575;SDS011;3829;50.798;4.358;2022-07-29T06:40:58;6.43;;;3.67;;
7575;SDS011;3829;50.798;4.358;2022-07-29T06:43:33;7.23;;;3.77;;
7575;SDS011;3829;50.798;4.358;2022-07-29T06:46:13;5.73;;;3.93;;
7575;SDS011;3829;50.798;4.358;2022-07-29T06:48:40;6.07;;;3.10;;
7575;SDS011;3829;50.798;4.358;2022-07-29T06:51:07;9.00;;;3.43;;
7575;SDS011;3829;50.798;4.358;2022-07-29T06:53:34;5.60;;;3.47;;
7575;SDS011;3829;50.798;4.358;2022-07-29T06:56:00;6.93;;;3.50;;
7575;SDS011;3829;50.798;4.358;2022-07-29T06:58:28;6.00;;;3.60;;
7575;SDS011;3829;50.798;4.358;2022-07-29T07:00:54;9.43;;;4.27;;
7575;SDS011;3829;50.798;4.358;2022-07-29T07:03:23;5.90;;;3.80;;
7575;SDS011;3829;50.798;4.358;2022-07-29T07:05:49;7.13;;;3.70;;
7575;SDS011;3829;50.798;4.358;2022-07-29T07:08:16;6.27;;;3.07;;
7575;SDS011;3829;50.798;4.358;2022-07-29T07:10:42;5.47;;;3.50;;
7575;SDS011;3829;50.798;4.358;2022-07-29T07:13:08;5.77;;;3.10;;
7575;SDS011;3829;50.798;4.358;2022-07-29T07:15:35;7.03;;;3.23;;
7575;SDS011;3829;50.798;4.358;2022-07-29T07:18:01;4.17;;;3.13;;
7575;SDS011;3829;50.798;4.358;2022-07-29T07:20:27;6.60;;;3.87;;
7575;SDS011;3829;50.798;4.358;2022-07-29T07:22:53;7.17;;;3.73;;
7575;SDS011;3829;50.798;4.358;2022-07-29T07:25:18;7.50;;;3.67;;
7575;SDS011;3829;50.798;4.358;2022-07-29T07:27:44;5.77;;;3.40;;
7575;SDS011;3829;50.798;4.358;2022-07-29T07:30:11;7.07;;;4.03;;
7575;SDS011;3829;50.798;4.358;2022-07-29T07:32:37;5.43;;;3.47;;
7575;SDS011;3829;50.798;4.358;2022-07-29T07:35:06;5.50;;;3.63;;
7575;SDS011;3829;50.798;4.358;2022-07-29T07:37:33;6.83;;;3.87;;
7575;SDS011;3829;50.798;4.358;2022-07-29T07:39:59;6.00;;;3.40;;
7575;SDS011;3829;50.798;4.358;2022-07-29T07:42:25;5.03;;;3.73;;
7575;SDS011;3829;50.798;4.358;2022-07-29T07:44:50;7.63;;;3.83;;
7575;SDS011;3829;50.798;4.358;2022-07-29T07:47:16;7.60;;;4.17;;
7575;SDS011;3829;50.798;4.358;2022-07-29T07:49:45;10.27;;;4.10;;
7575;SDS011;3829;50.798;4.358;2022-07-29T07:52:11;10.80;;;4.17;;
7575;SDS011;3829;50.798;4.358;2022-07-29T07:54:37;9.57;;;3.90;;
7575;SDS011;3829;50.798;4.358;2022-07-29T07:57:03;13.57;;;3.97;;
7575;SDS011;3829;50.798;4.358;2022-07-29T07:59:29;8.63;;;3.73;;
7575;SDS011;3829;50.798;4.358;2022-07-29T08:01:54;5.67;;;3.93;;
7575;SDS011;3829;50.798;4.358;2022-07-29T08:04:20;5.77;;;4.00;;
7575;SDS011;3829;50.798;4.358;2022-07-29T08:06:46;8.23;;;4.17;;
7575;SDS011;3829;50.798;4.358;2022-07-29T08:09:12;10.13;;;3.50;;
7575;SDS011;3829;50.798;4.358;2022-07-29T08:11:37;4.13;;;3.67;;
7575;SDS011;3829;50.798;4.358;2022-07-29T08:14:03;7.67;;;3.73;;
7575;SDS011;3829;50.798;4.358;2022-07-29T08:16:28;6.33;;;4.40;;
7575;SDS011;3829;50.798;4.358;2022-07-29T08:18:54;6.23;;;3.73;;
7575;SDS011;3829;50.798;4.358;2022-07-29T08:21:22;6.03;;;3.83;;
7575;SDS011;3829;50.798;4.358;2022-07-29T08:23:48;6.57;;;3.43;;
7575;SDS011;3829;50.798;4.358;2022-07-29T08:26:15;7.87;;;3.60;;
7575;SDS011;3829;50.798;4.358;2022-07-29T08:28:42;6.10;;;3.40;;
7575;SDS011;3829;50.798;4.358;2022-07-29T08:31:15;7.60;;;3.50;;
7575;SDS011;3829;50.798;4.358;2022-07-29T08:33:42;7.97;;;3.47;;
7575;SDS011;3829;50.798;4.358;2022-07-29T08:36:08;4.97;;;2.87;;
7575;SDS011;3829;50.798;4.358;2022-07-29T08:38:33;6.70;;;3.43;;
7575;SDS011;3829;50.798;4.358;2022-07-29T08:41:00;7.83;;;3.70;;
7575;SDS011;3829;50.798;4.358;2022-07-29T08:43:26;5.97;;;3.60;;
7575;SDS011;3829;50.798;4.358;2022-07-29T08:45:54;6.33;;;3.10;;
7575;SDS011;3829;50.798;4.358;2022-07-29T08:48:21;6.83;;;3.07;;
7575;SDS011;3829;50.798;4.358;2022-07-29T08:50:48;6.00;;;3.43;;
7575;SDS011;3829;50.798;4.358;2022-07-29T08:53:17;4.60;;;2.43;;
7575;SDS011;3829;50.798;4.358;2022-07-29T08:55:48;6.63;;;2.97;;
7575;SDS011;3829;50.798;4.358;2022-07-29T08:58:14;8.47;;;2.77;;
7575;SDS011;3829;50.798;4.358;2022-07-29T09:00:41;7.27;;;2.80;;
7575;SDS011;3829;50.798;4.358;2022-07-29T09:03:15;4.97;;;2.60;;
7575;SDS011;3829;50.798;4.358;2022-07-29T09:05:45;4.70;;;2.40;;
7575;SDS011;3829;50.798;4.358;2022-07-29T09:08:15;2.57;;;1.90;;
7575;SDS011;3829;50.798;4.358;2022-07-29T09:10:42;4.93;;;2.60;;
7575;SDS011;3829;50.798;4.358;2022-07-29T09:13:08;4.73;;;2.47;;
7575;SDS011;3829;50.798;4.358;2022-07-29T09:15:34;5.97;;;2.50;;
7575;SDS011;3829;50.798;4.358;2022-07-29T09:17:59;4.40;;;2.40;;
7575;SDS011;3829;50.798;4.358;2022-07-29T09:20:26;5.63;;;2.40;;
7575;SDS011;3829;50.798;4.358;2022-07-29T09:23:12;7.13;;;2.47;;
7575;SDS011;3829;50.798;4.358;2022-07-29T09:25:38;4.20;;;2.50;;
7575;SDS011;3829;50.798;4.358;2022-07-29T09:28:06;8.13;;;2.10;;
7575;SDS011;3829;50.798;4.358;2022-07-29T09:30:33;5.90;;;2.33;;
7575;SDS011;3829;50.798;4.358;2022-07-29T09:33:00;5.03;;;1.93;;
7575;SDS011;3829;50.798;4.358;2022-07-29T09:35:28;6.43;;;2.20;;
7575;SDS011;3829;50.798;4.358;2022-07-29T09:37:54;5.63;;;2.20;;
7575;SDS011;3829;50.798;4.358;2022-07-29T09:40:21;4.43;;;2.03;;
7575;SDS011;3829;50.798;4.358;2022-07-29T09:42:49;3.60;;;2.17;;
7575;SDS011;3829;50.798;4.358;2022-07-29T09:45:28;4.03;;;1.90;;
7575;SDS011;3829;50.798;4.358;2022-07-29T09:47:55;4.07;;;2.00;;
7575;SDS011;3829;50.798;4.358;2022-07-29T09:50:44;4.33;;;2.00;;
7575;SDS011;3829;50.798;4.358;2022-07-29T09:53:12;6.90;;;2.13;;
7575;SDS011;3829;50.798;4.358;2022-07-29T09:55:58;3.80;;;2.20;;
7575;SDS011;3829;50.798;4.358;2022-07-29T09:58:24;6.33;;;2.30;;
7575;SDS011;3829;50.798;4.358;2022-07-29T10:00:50;5.50;;;2.10;;
7575;SDS011;3829;50.798;4.358;2022-07-29T10:03:17;4.37;;;2.37;;
7575;SDS011;3829;50.798;4.358;2022-07-29T10:05:43;7.70;;;2.53;;
7575;SDS011;3829;50.798;4.358;2022-07-29T10:08:11;7.73;;;2.43;;
7575;SDS011;3829;50.798;4.358;2022-07-29T10:10:38;4.97;;;2.33;;
7575;SDS011;3829;50.798;4.358;2022-07-29T10:13:06;5.47;;;2.60;;
7575;SDS011;3829;50.798;4.358;2022-07-29T10:15:35;5.30;;;2.23;;
7575;SDS011;3829;50.798;4.358;2022-07-29T10:18:04;4.33;;;2.17;;
7575;SDS011;3829;50.798;4.358;2022-07-29T10:20:30;4.00;;;2.23;;
7575;SDS011;3829;50.798;4.358;2022-07-29T10:22:56;6.20;;;2.63;;
7575;SDS011;3829;50.798;4.358;2022-07-29T10:25:23;3.27;;;1.97;;
7575;SDS011;3829;50.798;4.358;2022-07-29T10:27:49;7.00;;;2.40;;
7575;SDS011;3829;50.798;4.358;2022-07-29T10:30:19;5.33;;;2.10;;
7575;SDS011;3829;50.798;4.358;2022-07-29T10:38:37;2.43;;;2.03;;
7575;SDS011;3829;50.798;4.358;2022-07-29T10:41:11;4.83;;;2.20;;
7575;SDS011;3829;50.798;4.358;2022-07-29T10:43:58;3.57;;;2.13;;
7575;SDS011;3829;50.798;4.358;2022-07-29T10:46:24;8.80;;;2.20;;
7575;SDS011;3829;50.798;4.358;2022-07-29T10:57:17;4.77;;;2.23;;
7575;SDS011;3829;50.798;4.358;2022-07-29T10:59:46;2.10;;;1.70;;
7575;SDS011;3829;50.798;4.358;2022-07-29T11:05:01;3.77;;;1.63;;
7575;SDS011;3829;50.798;4.358;2022-07-29T11:07:33;7.70;;;3.00;;
7575;SDS011;3829;50.798;4.358;2022-07-29T11:15:12;4.80;;;2.07;;
7575;SDS011;3829;50.798;4.358;2022-07-29T11:31:20;2.70;;;2.10;;
7575;SDS011;3829;50.798;4.358;2022-07-29T11:39:32;5.60;;;2.23;;
7575;SDS011;3829;50.798;4.358;2022-07-29T11:47:28;6.87;;;2.70;;
7575;SDS011;3829;50.798;4.358;2022-07-29T11:49:55;4.70;;;2.30;;
7575;SDS011;3829;50.798;4.358;2022-07-29T11:52:22;4.93;;;2.57;;
7575;SDS011;3829;50.798;4.358;2022-07-29T11:54:48;8.73;;;2.83;;
7575;SDS011;3829;50.798;4.358;2022-07-29T11:57:16;6.63;;;2.63;;
7575;SDS011;3829;50.798;4.358;2022-07-29T11:59:44;7.60;;;2.70;;
7575;SDS011;3829;50.798;4.358;2022-07-29T12:02:11;4.73;;;2.27;;
7575;SDS011;3829;50.798;4.358;2022-07-29T12:04:54;6.63;;;3.10;;
7575;SDS011;3829;50.798;4.358;2022-07-29T12:07:27;7.90;;;3.10;;
7575;SDS011;3829;50.798;4.358;2022-07-29T12:09:54;8.07;;;2.97;;
7575;SDS011;3829;50.798;4.358;2022-07-29T12:12:20;8.40;;;2.57;;
7575;SDS011;3829;50.798;4.358;2022-07-29T12:14:46;8.93;;;3.30;;
7575;SDS011;3829;50.798;4.358;2022-07-29T12:17:25;4.63;;;3.00;;
7575;SDS011;3829;50.798;4.358;2022-07-29T12:19:55;6.40;;;3.07;;
7575;SDS011;3829;50.798;4.358;2022-07-29T12:22:37;4.43;;;2.70;;
7575;SDS011;3829;50.798;4.358;2022-07-29T12:25:09;5.57;;;2.47;;
7575;SDS011;3829;50.798;4.358;2022-07-29T12:27:37;5.40;;;2.83;;
7575;SDS011;3829;50.798;4.358;2022-07-29T12:30:07;7.53;;;2.70;;
7575;SDS011;3829;50.798;4.358;2022-07-29T12:32:35;9.30;;;2.90;;
7575;SDS011;3829;50.798;4.358;2022-07-29T12:35:14;4.13;;;2.60;;
7575;SDS011;3829;50.798;4.358;2022-07-29T12:37:41;8.00;;;2.73;;
7575;SDS011;3829;50.798;4.358;2022-07-29T12:40:09;7.47;;;2.50;;
7575;SDS011;3829;50.798;4.358;2022-07-29T12:42:36;6.63;;;2.70;;
7575;SDS011;3829;50.798;4.358;2022-07-29T12:45:02;8.10;;;2.47;;
7575;SDS011;3829;50.798;4.358;2022-07-29T12:47:29;5.63;;;2.80;;
7575;SDS011;3829;50.798;4.358;2022-07-29T12:50:11;8.00;;;3.13;;
7575;SDS011;3829;50.798;4.358;2022-07-29T12:52:43;9.27;;;2.70;;
7575;SDS011;3829;50.798;4.358;2022-07-29T12:55:12;5.80;;;2.27;;
7575;SDS011;3829;50.798;4.358;2022-07-29T12:57:48;5.67;;;2.50;;
7575;SDS011;3829;50.798;4.358;2022-07-29T13:00:21;5.20;;;2.03;;
7575;SDS011;3829;50.798;4.358;2022-07-29T13:02:55;6.73;;;2.53;;
7575;SDS011;3829;50.798;4.358;2022-07-29T13:05:22;7.10;;;2.53;;
7575;SDS011;3829;50.798;4.358;2022-07-29T13:07:49;4.90;;;2.27;;
7575;SDS011;3829;50.798;4.358;2022-07-29T13:10:18;8.40;;;2.43;;
7575;SDS011;3829;50.798;4.358;2022-07-29T13:13:05;4.47;;;2.27;;
7575;SDS011;3829;50.798;4.358;2022-07-29T13:15:39;3.37;;;2.03;;
7575;SDS011;3829;50.798;4.358;2022-07-29T13:20:55;5.40;;;2.20;;
7575;SDS011;3829;50.798;4.358;2022-07-29T13:23:21;7.97;;;2.43;;
7575;SDS011;3829;50.798;4.358;2022-07-29T13:25:47;6.57;;;2.10;;
7575;SDS011;3829;50.798;4.358;2022-07-29T13:28:13;4.97;;;1.90;;
7575;SDS011;3829;50.798;4.358;2022-07-29T13:30:39;4.33;;;2.17;;
7575;SDS011;3829;50.798;4.358;2022-07-29T13:33:06;8.30;;;2.27;;
7575;SDS011;3829;50.798;4.358;2022-07-29T13:35:31;5.60;;;1.60;;
7575;SDS011;3829;50.798;4.358;2022-07-29T13:37:57;3.03;;;2.00;;
7575;SDS011;3829;50.798;4.358;2022-07-29T13:40:23;6.30;;;2.00;;
7575;SDS011;3829;50.798;4.358;2022-07-29T13:42:49;3.43;;;2.00;;
7575;SDS011;3829;50.798;4.358;2022-07-29T13:45:15;5.50;;;1.80;;
7575;SDS011;3829;50.798;4.358;2022-07-29T13:47:40;3.67;;;1.40;;
7575;SDS011;3829;50.798;4.358;2022-07-29T13:50:07;6.27;;;1.57;;
7575;SDS011;3829;50.798;4.358;2022-07-29T13:52:34;3.13;;;1.70;;
7575;SDS011;3829;50.798;4.358;2022-07-29T13:55:00;4.33;;;1.80;;
7575;SDS011;3829;50.798;4.358;2022-07-29T13:57:27;4.73;;;1.57;;
7575;SDS011;3829;50.798;4.358;2022-07-29T13:59:53;3.47;;;1.70;;
7575;SDS011;3829;50.798;4.358;2022-07-29T14:02:19;7.80;;;2.10;;
7575;SDS011;3829;50.798;4.358;2022-07-29T14:04:45;5.20;;;1.70;;
7575;SDS011;3829;50.798;4.358;2022-07-29T14:07:11;4.53;;;1.67;;
7575;SDS011;3829;50.798;4.358;2022-07-29T14:09:37;2.63;;;1.60;;
7575;SDS011;3829;50.798;4.358;2022-07-29T14:12:03;3.67;;;1.90;;
7575;SDS011;3829;50.798;4.358;2022-07-29T14:14:28;4.60;;;1.70;;
7575;SDS011;3829;50.798;4.358;2022-07-29T14:16:56;3.17;;;1.90;;
7575;SDS011;3829;50.798;4.358;2022-07-29T14:19:22;2.47;;;1.50;;
7575;SDS011;3829;50.798;4.358;2022-07-29T14:21:47;2.43;;;1.40;;
7575;SDS011;3829;50.798;4.358;2022-07-29T14:24:13;6.33;;;1.83;;
7575;SDS011;3829;50.798;4.358;2022-07-29T14:26:38;4.30;;;1.60;;
7575;SDS011;3829;50.798;4.358;2022-07-29T14:29:04;4.07;;;1.70;;
7575;SDS011;3829;50.798;4.358;2022-07-29T14:31:30;4.53;;;1.63;;
7575;SDS011;3829;50.798;4.358;2022-07-29T14:33:55;6.23;;;1.90;;
7575;SDS011;3829;50.798;4.358;2022-07-29T14:36:21;4.43;;;1.63;;
7575;SDS011;3829;50.798;4.358;2022-07-29T14:38:46;3.00;;;1.40;;
7575;SDS011;3829;50.798;4.358;2022-07-29T14:41:12;4.07;;;1.53;;
7575;SDS011;3829;50.798;4.358;2022-07-29T14:43:38;5.13;;;1.73;;
7575;SDS011;3829;50.798;4.358;2022-07-29T14:46:03;3.43;;;1.60;;
7575;SDS011;3829;50.798;4.358;2022-07-29T14:48:29;7.00;;;1.50;;
7575;SDS011;3829;50.798;4.358;2022-07-29T14:50:54;1.90;;;1.60;;
7575;SDS011;3829;50.798;4.358;2022-07-29T14:53:21;4.37;;;1.77;;
7575;SDS011;3829;50.798;4.358;2022-07-29T14:55:47;5.23;;;1.70;;
7575;SDS011;3829;50.798;4.358;2022-07-29T14:58:12;2.70;;;1.30;;
7575;SDS011;3829;50.798;4.358;2022-07-29T15:00:38;2.60;;;1.40;;
7575;SDS011;3829;50.798;4.358;2022-07-29T15:03:04;4.93;;;1.60;;
7575;SDS011;3829;50.798;4.358;2022-07-29T15:05:30;4.37;;;1.20;;
7575;SDS011;3829;50.798;4.358;2022-07-29T15:07:56;3.80;;;1.37;;
7575;SDS011;3829;50.798;4.358;2022-07-29T15:10:22;5.33;;;1.30;;
7575;SDS011;3829;50.798;4.358;2022-07-29T15:12:48;4.10;;;1.40;;
7575;SDS011;3829;50.798;4.358;2022-07-29T15:15:13;4.23;;;1.80;;
7575;SDS011;3829;50.798;4.358;2022-07-29T15:17:39;5.43;;;1.87;;
7575;SDS011;3829;50.798;4.358;2022-07-29T15:20:05;2.17;;;1.30;;
7575;SDS011;3829;50.798;4.358;2022-07-29T15:22:31;2.93;;;1.30;;
7575;SDS011;3829;50.798;4.358;2022-07-29T15:24:57;2.17;;;1.50;;
7575;SDS011;3829;50.798;4.358;2022-07-29T15:27:22;5.13;;;1.50;;
7575;SDS011;3829;50.798;4.358;2022-07-29T15:29:48;2.80;;;1.53;;
7575;SDS011;3829;50.798;4.358;2022-07-29T15:32:13;4.87;;;1.50;;
7575;SDS011;3829;50.798;4.358;2022-07-29T15:34:39;5.43;;;1.40;;
7575;SDS011;3829;50.798;4.358;2022-07-29T15:37:05;4.97;;;1.90;;
7575;SDS011;3829;50.798;4.358;2022-07-29T15:39:31;4.67;;;1.93;;
7575;SDS011;3829;50.798;4.358;2022-07-29T15:41:57;3.00;;;1.60;;
7575;SDS011;3829;50.798;4.358;2022-07-29T15:44:24;4.07;;;1.83;;
7575;SDS011;3829;50.798;4.358;2022-07-29T15:46:50;3.33;;;1.70;;
7575;SDS011;3829;50.798;4.358;2022-07-29T15:49:28;3.83;;;1.90;;
7575;SDS011;3829;50.798;4.358;2022-07-29T15:52:04;3.70;;;1.70;;
7575;SDS011;3829;50.798;4.358;2022-07-29T15:54:31;4.07;;;2.20;;
7575;SDS011;3829;50.798;4.358;2022-07-29T15:56:58;3.33;;;1.97;;
7575;SDS011;3829;50.798;4.358;2022-07-29T15:59:24;2.83;;;1.63;;
7575;SDS011;3829;50.798;4.358;2022-07-29T16:01:50;4.17;;;1.87;;
7575;SDS011;3829;50.798;4.358;2022-07-29T16:04:16;9.30;;;2.00;;
7575;SDS011;3829;50.798;4.358;2022-07-29T16:06:42;5.93;;;1.83;;
7575;SDS011;3829;50.798;4.358;2022-07-29T16:09:09;4.20;;;1.87;;
7575;SDS011;3829;50.798;4.358;2022-07-29T16:11:34;3.33;;;1.40;;
7575;SDS011;3829;50.798;4.358;2022-07-29T16:14:00;4.73;;;1.80;;